sensor_id;sensor_type;location;lat;lon;timestamp;temperature;humidity
15888;DHT22;56032;51.324;12.376;2022-10-29T00:00:48;15.60;99.90
15888;DHT22;56032;51.324;12.376;2022-10-29T00:06:08;15.60;99.90
15888;DHT22;56032;51.324;12.376;2022-10-29T00:08:38;15.60;99.90
15888;DHT22;56032;51.324;12.376;2022-10-29T00:11:07;15.50;99.90
15888;DHT22;56032;51.324;12.376;2022-10-29T00:13:36;15.50;99.90
15888;DHT22;56032;51.324;12.376;2022-10-29T00:16:05;15.60;99.90
15888;DHT22;56032;51.324;12.376;2022-10-29T00:18:34;15.60;99.90
15888;DHT22;56032;51.324;12.376;2022-10-29T00:21:02;15.60;99.90
15888;DHT22;56032;51.324;12.376;2022-10-29T00:23:31;15.60;99.90
15888;DHT22;56032;51.324;12.376;2022-10-29T00:26:02;15.70;99.90
15888;DHT22;56032;51.324;12.376;2022-10-29T00:28:31;15.70;99.90
15888;DHT22;56032;51.324;12.376;2022-10-29T00:31:01;15.70;99.90
15888;DHT22;56032;51.324;12.376;2022-10-29T00:33:29;15.80;99.90
15888;DHT22;56032;51.324;12.376;2022-10-29T00:35:58;15.80;99.90
15888;DHT22;56032;51.324;12.376;2022-10-29T00:38:29;15.90;99.90
15888;DHT22;56032;51.324;12.376;2022-10-29T00:40:57;15.90;99.90
15888;DHT22;56032;51.324;12.376;2022-10-29T00:43:27;16.00;99.90
15888;DHT22;56032;51.324;12.376;2022-10-29T00:45:56;16.00;99.90
15888;DHT22;56032;51.324;12.376;2022-10-29T00:48:27;15.90;99.90
15888;DHT22;56032;51.324;12.376;2022-10-29T00:54:05;16.00;99.90
15888;DHT22;56032;51.324;12.376;2022-10-29T00:56:36;16.00;99.90
15888;DHT22;56032;51.324;12.376;2022-10-29T00:59:09;16.00;99.90
15888;DHT22;56032;51.324;12.376;2022-10-29T01:01:38;16.10;99.90
15888;DHT22;56032;51.324;12.376;2022-10-29T01:04:06;16.10;99.90
15888;DHT22;56032;51.324;12.376;2022-10-29T01:06:35;16.10;99.90
15888;DHT22;56032;51.324;12.376;2022-10-29T01:09:04;16.10;99.90
15888;DHT22;56032;51.324;12.376;2022-10-29T01:11:36;16.00;99.90
15888;DHT22;56032;51.324;12.376;2022-10-29T01:14:14;16.00;99.90
15888;DHT22;56032;51.324;12.376;2022-10-29T01:16:48;16.00;99.90
15888;DHT22;56032;51.324;12.376;2022-10-29T01:19:19;16.00;99.90
15888;DHT22;56032;51.324;12.376;2022-10-29T01:21:56;16.00;99.90
15888;DHT22;56032;51.324;12.376;2022-10-29T01:24:43;16.00;99.90
15888;DHT22;56032;51.324;12.376;2022-10-29T01:30:06;15.90;99.90
15888;DHT22;56032;51.324;12.376;2022-10-29T01:32:41;15.90;99.90
15888;DHT22;56032;51.324;12.376;2022-10-29T01:35:14;15.80;99.90
15888;DHT22;56032;51.324;12.376;2022-10-29T01:37:46;15.80;99.90
15888;DHT22;56032;51.324;12.376;2022-10-29T01:40:20;15.80;99.90
15888;DHT22;56032;51.324;12.376;2022-10-29T01:42:52;15.80;99.90
15888;DHT22;56032;51.324;12.376;2022-10-29T01:45:24;15.80;99.90
15888;DHT22;56032;51.324;12.376;2022-10-29T01:47:55;15.80;99.90
15888;DHT22;56032;51.324;12.376;2022-10-29T01:50:25;15.90;99.90
15888;DHT22;56032;51.324;12.376;2022-10-29T01:52:54;15.90;99.90
15888;DHT22;56032;51.324;12.376;2022-10-29T01:55:27;15.90;99.90
15888;DHT22;56032;51.324;12.376;2022-10-29T01:57:56;15.80;99.90
15888;DHT22;56032;51.324;12.376;2022-10-29T02:00:25;15.80;99.90
15888;DHT22;56032;51.324;12.376;2022-10-29T02:02:59;15.80;99.90
15888;DHT22;56032;51.324;12.376;2022-10-29T02:05:31;15.80;99.90
15888;DHT22;56032;51.324;12.376;2022-10-29T02:08:04;15.80;99.90
15888;DHT22;56032;51.324;12.376;2022-10-29T02:10:38;15.80;99.90
15888;DHT22;56032;51.324;12.376;2022-10-29T02:13:08;15.90;99.90
15888;DHT22;56032;51.324;12.376;2022-10-29T02:15:38;15.90;99.90
15888;DHT22;56032;51.324;12.376;2022-10-29T02:18:10;15.80;99.90
15888;DHT22;56032;51.324;12.376;2022-10-29T02:20:40;15.80;99.90
15888;DHT22;56032;51.324;12.376;2022-10-29T02:23:09;15.70;99.90
15888;DHT22;56032;51.324;12.376;2022-10-29T02:25:37;15.80;99.90
15888;DHT22;56032;51.324;12.376;2022-10-29T02:28:06;15.80;99.90
15888;DHT22;56032;51.324;12.376;2022-10-29T02:30:35;15.80;99.90
15888;DHT22;56032;51.324;12.376;2022-10-29T02:33:03;15.80;99.90
15888;DHT22;56032;51.324;12.376;2022-10-29T02:35:32;15.80;99.90
15888;DHT22;56032;51.324;12.376;2022-10-29T02:38:01;15.80;99.90
15888;DHT22;56032;51.324;12.376;2022-10-29T02:40:29;15.80;99.90
15888;DHT22;56032;51.324;12.376;2022-10-29T02:42:57;15.90;99.90
15888;DHT22;56032;51.324;12.376;2022-10-29T02:45:26;15.90;99.90
15888;DHT22;56032;51.324;12.376;2022-10-29T02:47:54;15.90;99.90
15888;DHT22;56032;51.324;12.376;2022-10-29T02:50:23;15.80;99.90
15888;DHT22;56032;51.324;12.376;2022-10-29T02:52:53;15.70;99.90
15888;DHT22;56032;51.324;12.376;2022-10-29T02:55:21;15.70;99.90
15888;DHT22;56032;51.324;12.376;2022-10-29T02:57:49;15.70;99.90
15888;DHT22;56032;51.324;12.376;2022-10-29T03:00:18;15.70;99.90
15888;DHT22;56032;51.324;12.376;2022-10-29T03:02:48;15.70;99.90
15888;DHT22;56032;51.324;12.376;2022-10-29T03:05:17;15.70;99.90
15888;DHT22;56032;51.324;12.376;2022-10-29T03:07:46;15.70;99.90
15888;DHT22;56032;51.324;12.376;2022-10-29T03:10:15;15.60;99.90
15888;DHT22;56032;51.324;12.376;2022-10-29T03:12:44;15.50;99.90
15888;DHT22;56032;51.324;12.376;2022-10-29T03:15:13;15.40;99.90
15888;DHT22;56032;51.324;12.376;2022-10-29T03:17:41;15.30;99.90
15888;DHT22;56032;51.324;12.376;2022-10-29T03:20:10;15.30;99.90
15888;DHT22;56032;51.324;12.376;2022-10-29T03:22:39;15.20;99.90
15888;DHT22;56032;51.324;12.376;2022-10-29T03:25:08;15.20;99.90
15888;DHT22;56032;51.324;12.376;2022-10-29T03:27:41;15.20;99.90
15888;DHT22;56032;51.324;12.376;2022-10-29T03:30:11;15.20;99.90
15888;DHT22;56032;51.324;12.376;2022-10-29T03:32:39;15.20;99.90
15888;DHT22;56032;51.324;12.376;2022-10-29T03:35:09;15.30;99.90
15888;DHT22;56032;51.324;12.376;2022-10-29T03:37:38;15.30;99.90
15888;DHT22;56032;51.324;12.376;2022-10-29T03:40:07;15.30;99.90
15888;DHT22;56032;51.324;12.376;2022-10-29T03:42:36;15.40;99.90
15888;DHT22;56032;51.324;12.376;2022-10-29T03:45:07;15.40;99.90
15888;DHT22;56032;51.324;12.376;2022-10-29T03:47:35;15.30;99.90
15888;DHT22;56032;51.324;12.376;2022-10-29T03:50:05;15.30;99.90
15888;DHT22;56032;51.324;12.376;2022-10-29T03:52:33;15.20;99.90
15888;DHT22;56032;51.324;12.376;2022-10-29T03:55:01;15.10;99.90
15888;DHT22;56032;51.324;12.376;2022-10-29T03:57:31;15.10;99.90
15888;DHT22;56032;51.324;12.376;2022-10-29T04:00:00;15.20;99.90
15888;DHT22;56032;51.324;12.376;2022-10-29T04:02:32;15.20;99.90
15888;DHT22;56032;51.324;12.376;2022-10-29T04:05:00;15.20;99.90
15888;DHT22;56032;51.324;12.376;2022-10-29T04:07:29;15.20;99.90
15888;DHT22;56032;51.324;12.376;2022-10-29T04:09:59;15.10;99.90
15888;DHT22;56032;51.324;12.376;2022-10-29T04:15:18;15.00;99.90
15888;DHT22;56032;51.324;12.376;2022-10-29T04:20:38;15.00;99.90
15888;DHT22;56032;51.324;12.376;2022-10-29T04:23:27;15.00;99.90
15888;DHT22;56032;51.324;12.376;2022-10-29T04:26:15;15.10;99.90
15888;DHT22;56032;51.324;12.376;2022-10-29T04:29:04;15.10;99.90
15888;DHT22;56032;51.324;12.376;2022-10-29T04:34:37;14.90;99.90
15888;DHT22;56032;51.324;12.376;2022-10-29T04:37:09;14.80;99.90
15888;DHT22;56032;51.324;12.376;2022-10-29T04:39:38;14.80;99.90
15888;DHT22;56032;51.324;12.376;2022-10-29T04:42:06;14.90;99.90
15888;DHT22;56032;51.324;12.376;2022-10-29T04:47:39;15.00;99.90
15888;DHT22;56032;51.324;12.376;2022-10-29T04:50:09;15.00;99.90
15888;DHT22;56032;51.324;12.376;2022-10-29T04:52:39;14.90;99.90
15888;DHT22;56032;51.324;12.376;2022-10-29T04:55:10;14.90;99.90
15888;DHT22;56032;51.324;12.376;2022-10-29T05:00:27;14.70;99.90
15888;DHT22;56032;51.324;12.376;2022-10-29T05:02:55;14.70;99.90
15888;DHT22;56032;51.324;12.376;2022-10-29T05:05:25;14.60;99.90
15888;DHT22;56032;51.324;12.376;2022-10-29T05:07:58;14.60;99.90
15888;DHT22;56032;51.324;12.376;2022-10-29T05:10:26;14.60;99.90
15888;DHT22;56032;51.324;12.376;2022-10-29T05:12:56;14.60;99.90
15888;DHT22;56032;51.324;12.376;2022-10-29T05:15:25;14.60;99.90
15888;DHT22;56032;51.324;12.376;2022-10-29T05:17:53;14.50;99.90
15888;DHT22;56032;51.324;12.376;2022-10-29T05:20:22;14.50;99.90
15888;DHT22;56032;51.324;12.376;2022-10-29T05:22:58;14.50;99.90
15888;DHT22;56032;51.324;12.376;2022-10-29T05:25:26;14.60;99.90
15888;DHT22;56032;51.324;12.376;2022-10-29T05:27:59;14.60;99.90
15888;DHT22;56032;51.324;12.376;2022-10-29T05:30:28;14.60;99.90
15888;DHT22;56032;51.324;12.376;2022-10-29T05:32:56;14.60;99.90
15888;DHT22;56032;51.324;12.376;2022-10-29T05:35:25;14.60;99.90
15888;DHT22;56032;51.324;12.376;2022-10-29T05:40:42;14.60;99.90
15888;DHT22;56032;51.324;12.376;2022-10-29T05:43:11;14.60;99.90
15888;DHT22;56032;51.324;12.376;2022-10-29T05:45:40;14.60;99.90
15888;DHT22;56032;51.324;12.376;2022-10-29T05:48:09;14.60;99.90
15888;DHT22;56032;51.324;12.376;2022-10-29T05:50:39;14.50;99.90
15888;DHT22;56032;51.324;12.376;2022-10-29T05:53:09;14.50;99.90
15888;DHT22;56032;51.324;12.376;2022-10-29T05:55:38;14.50;99.90
15888;DHT22;56032;51.324;12.376;2022-10-29T05:58:09;14.50;99.90
15888;DHT22;56032;51.324;12.376;2022-10-29T06:00:38;14.50;99.90
15888;DHT22;56032;51.324;12.376;2022-10-29T06:03:09;14.50;99.90
15888;DHT22;56032;51.324;12.376;2022-10-29T06:05:38;14.50;99.90
15888;DHT22;56032;51.324;12.376;2022-10-29T06:08:06;14.50;99.90
15888;DHT22;56032;51.324;12.376;2022-10-29T06:13:24;14.50;99.90
15888;DHT22;56032;51.324;12.376;2022-10-29T06:15:55;14.60;99.90
15888;DHT22;56032;51.324;12.376;2022-10-29T06:18:25;14.50;99.90
15888;DHT22;56032;51.324;12.376;2022-10-29T06:20:56;14.60;99.90
15888;DHT22;56032;51.324;12.376;2022-10-29T06:23:25;14.50;99.90
15888;DHT22;56032;51.324;12.376;2022-10-29T06:25:53;14.50;99.90
15888;DHT22;56032;51.324;12.376;2022-10-29T06:28:21;14.50;99.90
15888;DHT22;56032;51.324;12.376;2022-10-29T06:31:01;14.40;99.90
15888;DHT22;56032;51.324;12.376;2022-10-29T06:33:30;14.40;99.90
15888;DHT22;56032;51.324;12.376;2022-10-29T06:35:58;14.50;99.90
15888;DHT22;56032;51.324;12.376;2022-10-29T06:38:27;14.50;99.90
15888;DHT22;56032;51.324;12.376;2022-10-29T06:40:56;14.60;99.90
15888;DHT22;56032;51.324;12.376;2022-10-29T06:43:24;14.60;99.90
15888;DHT22;56032;51.324;12.376;2022-10-29T06:45:53;14.60;99.90
15888;DHT22;56032;51.324;12.376;2022-10-29T06:48:23;14.70;99.90
15888;DHT22;56032;51.324;12.376;2022-10-29T06:50:51;14.80;99.90
15888;DHT22;56032;51.324;12.376;2022-10-29T06:53:20;14.80;99.90
15888;DHT22;56032;51.324;12.376;2022-10-29T06:55:48;14.90;99.90
15888;DHT22;56032;51.324;12.376;2022-10-29T06:58:18;15.10;99.90
15888;DHT22;56032;51.324;12.376;2022-10-29T07:00:46;15.10;99.90
15888;DHT22;56032;51.324;12.376;2022-10-29T07:03:15;15.10;99.90
15888;DHT22;56032;51.324;12.376;2022-10-29T07:05:45;15.20;99.90
15888;DHT22;56032;51.324;12.376;2022-10-29T07:08:14;15.20;99.90
15888;DHT22;56032;51.324;12.376;2022-10-29T07:10:43;15.30;99.90
15888;DHT22;56032;51.324;12.376;2022-10-29T07:13:11;15.20;99.90
15888;DHT22;56032;51.324;12.376;2022-10-29T07:15:39;15.10;99.90
15888;DHT22;56032;51.324;12.376;2022-10-29T07:18:08;15.10;99.90
15888;DHT22;56032;51.324;12.376;2022-10-29T07:20:38;15.10;99.90
15888;DHT22;56032;51.324;12.376;2022-10-29T07:23:08;15.10;99.90
15888;DHT22;56032;51.324;12.376;2022-10-29T07:25:37;15.10;99.90
15888;DHT22;56032;51.324;12.376;2022-10-29T07:28:06;15.20;99.90
15888;DHT22;56032;51.324;12.376;2022-10-29T07:30:35;15.30;99.90
15888;DHT22;56032;51.324;12.376;2022-10-29T07:33:03;15.40;99.90
15888;DHT22;56032;51.324;12.376;2022-10-29T07:35:32;15.50;99.90
15888;DHT22;56032;51.324;12.376;2022-10-29T07:38:01;15.60;99.90
15888;DHT22;56032;51.324;12.376;2022-10-29T07:40:37;15.70;99.90
15888;DHT22;56032;51.324;12.376;2022-10-29T07:43:06;15.90;99.90
15888;DHT22;56032;51.324;12.376;2022-10-29T07:45:34;15.90;99.90
15888;DHT22;56032;51.324;12.376;2022-10-29T07:48:04;16.00;99.90
15888;DHT22;56032;51.324;12.376;2022-10-29T07:50:33;16.10;99.90
15888;DHT22;56032;51.324;12.376;2022-10-29T07:53:02;16.20;99.90
15888;DHT22;56032;51.324;12.376;2022-10-29T07:55:31;16.30;99.90
15888;DHT22;56032;51.324;12.376;2022-10-29T07:58:02;16.40;99.90
15888;DHT22;56032;51.324;12.376;2022-10-29T08:00:31;16.50;99.90
15888;DHT22;56032;51.324;12.376;2022-10-29T08:03:00;16.60;99.90
15888;DHT22;56032;51.324;12.376;2022-10-29T08:05:29;16.70;99.90
15888;DHT22;56032;51.324;12.376;2022-10-29T08:07:58;16.70;99.90
15888;DHT22;56032;51.324;12.376;2022-10-29T08:10:26;16.70;99.90
15888;DHT22;56032;51.324;12.376;2022-10-29T08:12:56;16.70;99.90
15888;DHT22;56032;51.324;12.376;2022-10-29T08:15:26;16.80;99.90
15888;DHT22;56032;51.324;12.376;2022-10-29T08:17:56;16.80;99.90
15888;DHT22;56032;51.324;12.376;2022-10-29T08:20:25;16.90;99.90
15888;DHT22;56032;51.324;12.376;2022-10-29T08:22:54;16.90;99.90
15888;DHT22;56032;51.324;12.376;2022-10-29T08:25:23;16.90;99.90
15888;DHT22;56032;51.324;12.376;2022-10-29T08:27:58;16.90;99.90
15888;DHT22;56032;51.324;12.376;2022-10-29T08:30:29;16.90;99.90
15888;DHT22;56032;51.324;12.376;2022-10-29T08:32:58;17.00;99.90
15888;DHT22;56032;51.324;12.376;2022-10-29T08:35:27;17.00;99.90
15888;DHT22;56032;51.324;12.376;2022-10-29T08:37:56;17.10;99.90
15888;DHT22;56032;51.324;12.376;2022-10-29T08:40:29;17.10;99.90
15888;DHT22;56032;51.324;12.376;2022-10-29T08:43:06;17.10;99.90
15888;DHT22;56032;51.324;12.376;2022-10-29T08:45:42;17.40;99.90
15888;DHT22;56032;51.324;12.376;2022-10-29T08:48:20;17.30;99.90
15888;DHT22;56032;51.324;12.376;2022-10-29T08:50:51;17.40;99.90
15888;DHT22;56032;51.324;12.376;2022-10-29T08:53:21;17.50;99.90
15888;DHT22;56032;51.324;12.376;2022-10-29T08:55:56;17.60;99.90
15888;DHT22;56032;51.324;12.376;2022-10-29T08:58:26;17.60;99.90
15888;DHT22;56032;51.324;12.376;2022-10-29T09:00:59;17.70;99.90
15888;DHT22;56032;51.324;12.376;2022-10-29T09:03:28;17.90;99.90
15888;DHT22;56032;51.324;12.376;2022-10-29T09:05:59;18.00;99.90
15888;DHT22;56032;51.324;12.376;2022-10-29T09:08:30;18.20;99.90
15888;DHT22;56032;51.324;12.376;2022-10-29T09:11:04;18.20;99.90
15888;DHT22;56032;51.324;12.376;2022-10-29T09:13:43;18.20;99.90
15888;DHT22;56032;51.324;12.376;2022-10-29T09:16:22;18.30;99.90
15888;DHT22;56032;51.324;12.376;2022-10-29T09:18:56;18.30;99.90
15888;DHT22;56032;51.324;12.376;2022-10-29T09:21:29;18.40;99.90
15888;DHT22;56032;51.324;12.376;2022-10-29T09:24:01;18.50;99.90
15888;DHT22;56032;51.324;12.376;2022-10-29T09:26:37;18.60;99.90
15888;DHT22;56032;51.324;12.376;2022-10-29T09:29:22;18.60;99.90
15888;DHT22;56032;51.324;12.376;2022-10-29T09:31:56;18.70;99.90
15888;DHT22;56032;51.324;12.376;2022-10-29T09:34:28;18.70;99.90
15888;DHT22;56032;51.324;12.376;2022-10-29T09:36:57;18.70;99.90
15888;DHT22;56032;51.324;12.376;2022-10-29T09:39:27;18.80;99.90
15888;DHT22;56032;51.324;12.376;2022-10-29T09:42:00;18.80;99.90
15888;DHT22;56032;51.324;12.376;2022-10-29T09:44:34;18.80;99.90
15888;DHT22;56032;51.324;12.376;2022-10-29T09:47:10;18.90;99.90
15888;DHT22;56032;51.324;12.376;2022-10-29T09:49:45;19.00;99.90
15888;DHT22;56032;51.324;12.376;2022-10-29T09:52:15;19.10;99.90
15888;DHT22;56032;51.324;12.376;2022-10-29T09:54:45;19.10;99.90
15888;DHT22;56032;51.324;12.376;2022-10-29T09:57:17;19.10;99.90
15888;DHT22;56032;51.324;12.376;2022-10-29T09:59:46;19.10;99.90
15888;DHT22;56032;51.324;12.376;2022-10-29T10:02:21;19.10;99.90
15888;DHT22;56032;51.324;12.376;2022-10-29T10:04:52;19.10;99.90
15888;DHT22;56032;51.324;12.376;2022-10-29T10:07:22;19.20;99.90
15888;DHT22;56032;51.324;12.376;2022-10-29T10:09:55;19.30;99.90
15888;DHT22;56032;51.324;12.376;2022-10-29T10:12:24;19.30;99.90
15888;DHT22;56032;51.324;12.376;2022-10-29T10:15:00;19.40;99.90
15888;DHT22;56032;51.324;12.376;2022-10-29T10:17:34;19.40;99.90
15888;DHT22;56032;51.324;12.376;2022-10-29T10:20:28;19.40;99.90
15888;DHT22;56032;51.324;12.376;2022-10-29T10:22:58;19.50;99.90
15888;DHT22;56032;51.324;12.376;2022-10-29T10:25:32;19.60;99.90
15888;DHT22;56032;51.324;12.376;2022-10-29T10:28:14;19.60;99.90
15888;DHT22;56032;51.324;12.376;2022-10-29T10:30:43;19.60;99.90
15888;DHT22;56032;51.324;12.376;2022-10-29T10:33:23;19.70;99.90
15888;DHT22;56032;51.324;12.376;2022-10-29T10:38:44;19.70;99.90
15888;DHT22;56032;51.324;12.376;2022-10-29T10:47:23;19.70;99.90
15888;DHT22;56032;51.324;12.376;2022-10-29T10:49:56;19.70;99.90
15888;DHT22;56032;51.324;12.376;2022-10-29T10:59:41;19.80;99.90
15888;DHT22;56032;51.324;12.376;2022-10-29T11:02:13;19.90;99.90
15888;DHT22;56032;51.324;12.376;2022-10-29T11:04:46;19.90;99.90
15888;DHT22;56032;51.324;12.376;2022-10-29T11:07:18;19.90;99.90
15888;DHT22;56032;51.324;12.376;2022-10-29T11:09:47;20.00;99.90
15888;DHT22;56032;51.324;12.376;2022-10-29T11:12:21;20.00;99.90
15888;DHT22;56032;51.324;12.376;2022-10-29T11:14:52;20.10;99.90
15888;DHT22;56032;51.324;12.376;2022-10-29T11:17:24;20.10;99.90
15888;DHT22;56032;51.324;12.376;2022-10-29T11:19:54;20.20;99.90
15888;DHT22;56032;51.324;12.376;2022-10-29T11:22:27;20.30;99.90
15888;DHT22;56032;51.324;12.376;2022-10-29T11:24:57;20.30;99.90
15888;DHT22;56032;51.324;12.376;2022-10-29T11:27:29;20.40;99.90
15888;DHT22;56032;51.324;12.376;2022-10-29T11:30:03;20.50;99.90
15888;DHT22;56032;51.324;12.376;2022-10-29T11:32:37;20.50;99.90
15888;DHT22;56032;51.324;12.376;2022-10-29T11:35:11;20.50;99.90
15888;DHT22;56032;51.324;12.376;2022-10-29T11:37:44;20.50;99.90
15888;DHT22;56032;51.324;12.376;2022-10-29T11:40:16;20.60;99.90
15888;DHT22;56032;51.324;12.376;2022-10-29T11:42:46;20.80;99.90
15888;DHT22;56032;51.324;12.376;2022-10-29T11:45:16;20.70;99.90
15888;DHT22;56032;51.324;12.376;2022-10-29T11:47:52;20.70;99.90
15888;DHT22;56032;51.324;12.376;2022-10-29T11:50:28;20.70;99.90
15888;DHT22;56032;51.324;12.376;2022-10-29T11:53:04;20.70;99.90
15888;DHT22;56032;51.324;12.376;2022-10-29T11:55:35;20.70;99.90
15888;DHT22;56032;51.324;12.376;2022-10-29T11:58:07;20.60;99.90
15888;DHT22;56032;51.324;12.376;2022-10-29T12:00:43;20.60;99.90
15888;DHT22;56032;51.324;12.376;2022-10-29T12:03:19;20.50;99.90
15888;DHT22;56032;51.324;12.376;2022-10-29T12:05:54;20.50;99.90
15888;DHT22;56032;51.324;12.376;2022-10-29T12:08:30;20.60;99.90
15888;DHT22;56032;51.324;12.376;2022-10-29T12:11:05;20.60;99.90
15888;DHT22;56032;51.324;12.376;2022-10-29T12:13:41;20.40;99.90
15888;DHT22;56032;51.324;12.376;2022-10-29T12:16:14;20.60;99.90
15888;DHT22;56032;51.324;12.376;2022-10-29T12:18:45;20.60;99.90
15888;DHT22;56032;51.324;12.376;2022-10-29T12:21:22;20.50;99.90
15888;DHT22;56032;51.324;12.376;2022-10-29T12:23:56;20.70;99.90
15888;DHT22;56032;51.324;12.376;2022-10-29T12:26:28;20.80;99.90
15888;DHT22;56032;51.324;12.376;2022-10-29T12:28:59;20.80;99.90
15888;DHT22;56032;51.324;12.376;2022-10-29T12:31:33;20.90;99.90
15888;DHT22;56032;51.324;12.376;2022-10-29T12:34:04;20.90;99.90
15888;DHT22;56032;51.324;12.376;2022-10-29T12:36:34;20.90;99.90
15888;DHT22;56032;51.324;12.376;2022-10-29T12:39:09;20.90;99.90
15888;DHT22;56032;51.324;12.376;2022-10-29T12:41:39;20.80;99.90
15888;DHT22;56032;51.324;12.376;2022-10-29T12:44:11;20.80;99.90
15888;DHT22;56032;51.324;12.376;2022-10-29T12:46:43;20.70;99.90
15888;DHT22;56032;51.324;12.376;2022-10-29T12:49:16;20.60;99.90
15888;DHT22;56032;51.324;12.376;2022-10-29T12:51:47;20.60;99.90
15888;DHT22;56032;51.324;12.376;2022-10-29T12:54:27;20.50;99.90
15888;DHT22;56032;51.324;12.376;2022-10-29T12:59:41;20.40;99.90
15888;DHT22;56032;51.324;12.376;2022-10-29T13:02:16;20.40;99.90
15888;DHT22;56032;51.324;12.376;2022-10-29T13:07:29;20.50;99.90
15888;DHT22;56032;51.324;12.376;2022-10-29T13:15:33;20.40;99.90
15888;DHT22;56032;51.324;12.376;2022-10-29T13:18:03;20.40;99.90
15888;DHT22;56032;51.324;12.376;2022-10-29T13:20:33;20.40;99.90
15888;DHT22;56032;51.324;12.376;2022-10-29T13:23:13;20.40;99.90
15888;DHT22;56032;51.324;12.376;2022-10-29T13:25:57;20.40;99.90
15888;DHT22;56032;51.324;12.376;2022-10-29T13:34:01;20.50;99.90
15888;DHT22;56032;51.324;12.376;2022-10-29T13:36:36;20.60;99.90
15888;DHT22;56032;51.324;12.376;2022-10-29T13:39:15;20.60;99.90
15888;DHT22;56032;51.324;12.376;2022-10-29T13:41:48;20.60;99.90
15888;DHT22;56032;51.324;12.376;2022-10-29T13:44:18;20.60;99.90
15888;DHT22;56032;51.324;12.376;2022-10-29T13:46:48;20.60;99.90
15888;DHT22;56032;51.324;12.376;2022-10-29T13:49:22;20.60;99.90
15888;DHT22;56032;51.324;12.376;2022-10-29T13:51:52;20.60;99.90
15888;DHT22;56032;51.324;12.376;2022-10-29T13:54:23;20.60;99.90
15888;DHT22;56032;51.324;12.376;2022-10-29T13:56:58;20.60;99.90
15888;DHT22;56032;51.324;12.376;2022-10-29T13:59:30;20.60;99.90
15888;DHT22;56032;51.324;12.376;2022-10-29T14:02:04;20.60;99.90
15888;DHT22;56032;51.324;12.376;2022-10-29T14:04:41;20.60;99.90
15888;DHT22;56032;51.324;12.376;2022-10-29T14:07:15;20.60;99.90
15888;DHT22;56032;51.324;12.376;2022-10-29T14:09:45;20.60;99.90
15888;DHT22;56032;51.324;12.376;2022-10-29T14:12:15;20.60;99.90
15888;DHT22;56032;51.324;12.376;2022-10-29T14:14:47;20.70;99.90
15888;DHT22;56032;51.324;12.376;2022-10-29T14:17:17;20.70;99.90
15888;DHT22;56032;51.324;12.376;2022-10-29T14:19:47;20.70;99.90
15888;DHT22;56032;51.324;12.376;2022-10-29T14:22:29;20.70;99.90
15888;DHT22;56032;51.324;12.376;2022-10-29T14:24:59;20.70;99.90
15888;DHT22;56032;51.324;12.376;2022-10-29T14:27:28;20.70;99.90
15888;DHT22;56032;51.324;12.376;2022-10-29T14:30:13;20.70;99.90
15888;DHT22;56032;51.324;12.376;2022-10-29T14:32:45;20.70;99.90
15888;DHT22;56032;51.324;12.376;2022-10-29T14:35:15;20.70;99.90
15888;DHT22;56032;51.324;12.376;2022-10-29T14:37:46;20.70;99.90
15888;DHT22;56032;51.324;12.376;2022-10-29T14:40:17;20.70;99.90
15888;DHT22;56032;51.324;12.376;2022-10-29T14:42:47;20.70;99.90
15888;DHT22;56032;51.324;12.376;2022-10-29T14:45:22;20.50;99.90
15888;DHT22;56032;51.324;12.376;2022-10-29T14:47:52;20.60;99.90
15888;DHT22;56032;51.324;12.376;2022-10-29T14:50:24;20.60;99.90
15888;DHT22;56032;51.324;12.376;2022-10-29T14:52:53;20.50;99.90
15888;DHT22;56032;51.324;12.376;2022-10-29T14:55:24;20.50;99.90
15888;DHT22;56032;51.324;12.376;2022-10-29T14:57:55;20.40;99.90
15888;DHT22;56032;51.324;12.376;2022-10-29T15:03:01;20.30;99.90
15888;DHT22;56032;51.324;12.376;2022-10-29T15:05:32;20.20;99.90
15888;DHT22;56032;51.324;12.376;2022-10-29T15:08:02;20.20;99.90
15888;DHT22;56032;51.324;12.376;2022-10-29T15:10:32;20.10;99.90
15888;DHT22;56032;51.324;12.376;2022-10-29T15:13:17;20.20;99.90
15888;DHT22;56032;51.324;12.376;2022-10-29T15:15:52;20.20;99.90
15888;DHT22;56032;51.324;12.376;2022-10-29T15:18:21;20.10;99.90
15888;DHT22;56032;51.324;12.376;2022-10-29T15:20:51;20.10;99.90
15888;DHT22;56032;51.324;12.376;2022-10-29T15:23:22;20.00;99.90
15888;DHT22;56032;51.324;12.376;2022-10-29T15:25:52;20.00;99.90
15888;DHT22;56032;51.324;12.376;2022-10-29T15:28:24;19.90;99.90
15888;DHT22;56032;51.324;12.376;2022-10-29T15:30:53;19.90;99.90
15888;DHT22;56032;51.324;12.376;2022-10-29T15:33:24;19.80;99.90
15888;DHT22;56032;51.324;12.376;2022-10-29T15:35:54;19.70;99.90
15888;DHT22;56032;51.324;12.376;2022-10-29T15:41:29;19.60;99.90
15888;DHT22;56032;51.324;12.376;2022-10-29T15:44:01;19.60;99.90
15888;DHT22;56032;51.324;12.376;2022-10-29T15:46:30;19.60;99.90
15888;DHT22;56032;51.324;12.376;2022-10-29T15:49:02;19.60;99.90
15888;DHT22;56032;51.324;12.376;2022-10-29T15:51:32;19.60;99.90
15888;DHT22;56032;51.324;12.376;2022-10-29T15:54:00;19.60;99.90
15888;DHT22;56032;51.324;12.376;2022-10-29T15:56:29;19.60;99.90
15888;DHT22;56032;51.324;12.376;2022-10-29T15:58:58;19.50;99.90
15888;DHT22;56032;51.324;12.376;2022-10-29T16:01:27;19.50;99.90
15888;DHT22;56032;51.324;12.376;2022-10-29T16:03:56;19.40;99.90
15888;DHT22;56032;51.324;12.376;2022-10-29T16:06:24;19.30;99.90
15888;DHT22;56032;51.324;12.376;2022-10-29T16:08:54;19.30;99.90
15888;DHT22;56032;51.324;12.376;2022-10-29T16:11:23;19.20;99.90
15888;DHT22;56032;51.324;12.376;2022-10-29T16:13:52;19.20;99.90
15888;DHT22;56032;51.324;12.376;2022-10-29T16:16:21;19.20;99.90
15888;DHT22;56032;51.324;12.376;2022-10-29T16:18:50;19.20;99.90
15888;DHT22;56032;51.324;12.376;2022-10-29T16:21:20;19.20;99.90
15888;DHT22;56032;51.324;12.376;2022-10-29T16:23:48;19.10;99.90
15888;DHT22;56032;51.324;12.376;2022-10-29T16:26:19;19.10;99.90
15888;DHT22;56032;51.324;12.376;2022-10-29T16:28:48;19.00;99.90
15888;DHT22;56032;51.324;12.376;2022-10-29T16:31:18;19.00;99.90
15888;DHT22;56032;51.324;12.376;2022-10-29T16:33:47;19.00;99.90
15888;DHT22;56032;51.324;12.376;2022-10-29T16:36:15;19.00;99.90
15888;DHT22;56032;51.324;12.376;2022-10-29T16:38:44;18.90;99.90
15888;DHT22;56032;51.324;12.376;2022-10-29T16:41:13;19.00;99.90
15888;DHT22;56032;51.324;12.376;2022-10-29T16:43:43;19.00;99.90
15888;DHT22;56032;51.324;12.376;2022-10-29T16:46:12;18.90;99.90